Honolulu, HI

9:48 PM HST on October 23, 2014 (GMT -1000)
Pacific Heights | Change Station
CLOSE
Current Station
Personal Weather Station
Location: Honolulu, HI
Elevation: 528 ft
Nearby Weather Stations

Elev 528 ft 21.33 °N, 157.84 °W | Updated 1 second ago

Scattered Clouds
Scattered Clouds
76.8 °F
Feels Like 78 °F
N
6.9
Wind Variable Wind from ENE
Gusts 11.0 mph

Today
High -- | Low -- °F
--% Chance of Precip.
Yesterday
High -- | Low -- °F
Precip. -- in
6:30 AM 6:00 PM
New Moon, 0% visible
Pressure 30.05 in
Visibility 10.0 miles
Clouds Few 2500 ft
Scattered Clouds 3500 ft
Heat Index 78 °F
Dew Point 68 °F
Humidity 74%
Rainfall 0.07 in
Snow Depth Not available.
UV 0 out of 12
Pollen Not available.
PM2.5 Good
Flu Activity Sporadic
METAR PHNL 240653Z 04013KT 10SM FEW025 SCT035 26/21 A3005 RMK AO2 RAE10 SLP174 P0000 T02560206

More Conditions Fewer Conditions

Pressure 30.05 in
Visibility 10.0 miles
Clouds Few 2500 ft
Scattered Clouds 3500 ft
Heat Index 78 °F
Dew Point 68 °F
Humidity 74%
Rainfall 0.07 in
Snow Depth Not available.
UV 0 out of 12
Pollen Not available.
PM2.5 Good
Flu Activity Sporadic
METAR PHNL 240653Z 04013KT 10SM FEW025 SCT035 26/21 A3005 RMK AO2 RAE10 SLP174 P0000 T02560206

More Conditions Fewer Conditions

10-Day Weather Forecast

Almanac

Astronomy

Oct. 23, 2014 Rise Set
Actual Time 6:30 AM HST 6:00 PM HST
Civil Twilight 6:07 AM HST 6:23 PM HST
Nautical Twilight 5:41 AM HST 6:49 PM HST
Astronomical Twilight 5:15 AM HST 7:15 PM HST
Moon 6:22 AM HST (10/23) 6:10 PM HST (10/23)
Length of Visible Light 12h 15m
Length of Day
11h 30m
Tomorrow will be 1m 7s shorter.
New Moon, 0% of the Moon is Illuminated
Oct 24
New Moon
Oct 30
First Quarter
Nov 6
Full
Nov 14
Last Quarter
Nov 22
New

Yesterday's Extremes

State Highs State Lows

Community

WunderPhotos

Upload Photos

1,764,512 photos uploaded!

WunderBlogs® & News

Nearby

Air Quality

  Air Quality AQ Index Pollutant
Yesterday Good
PM2.5
Current Good
PM2.5
Thursday Good
OZONE
Friday Good
OZONE

Snow Depth

Station Depth Elevation
No new snow has been reported.

Earthquake Activity

City Distance Mag. Time & Date
No recent earthquake activity has been reported nearby.
Minimum magnitude displayed is 2.5.

Coastal Water Temperatures

Place Temperature
No Stations Reporting

Nearby Weather Stations